sensor_id;sensor_type;location;lat;lon;timestamp;pressure;altitude;pressure_sealevel;temperature;humidity
42385;BME280;28042;43.986;22.860;2023-10-13T00:00:21;101598.63;;;10.24;100.00
42385;BME280;28042;43.986;22.860;2023-10-13T00:02:55;101600.38;;;10.25;100.00
42385;BME280;28042;43.986;22.860;2023-10-13T00:05:21;101587.06;;;10.22;100.00
42385;BME280;28042;43.986;22.860;2023-10-13T00:07:46;101588.06;;;10.21;100.00
42385;BME280;28042;43.986;22.860;2023-10-13T00:10:12;101591.81;;;10.20;100.00
42385;BME280;28042;43.986;22.860;2023-10-13T00:12:37;101583.47;;;10.13;100.00
42385;BME280;28042;43.986;22.860;2023-10-13T00:15:03;101581.59;;;10.06;100.00
42385;BME280;28042;43.986;22.860;2023-10-13T00:17:29;101574.81;;;10.02;100.00
42385;BME280;28042;43.986;22.860;2023-10-13T00:19:57;101578.56;;;10.01;100.00
42385;BME280;28042;43.986;22.860;2023-10-13T00:22:25;101576.50;;;10.03;100.00
42385;BME280;28042;43.986;22.860;2023-10-13T00:24:52;101578.56;;;10.01;100.00
42385;BME280;28042;43.986;22.860;2023-10-13T00:27:23;101580.59;;;9.99;100.00
42385;BME280;28042;43.986;22.860;2023-10-13T00:30:01;101583.00;;;9.94;100.00
42385;BME280;28042;43.986;22.860;2023-10-13T00:32:45;101576.16;;;9.89;100.00
42385;BME280;28042;43.986;22.860;2023-10-13T00:35:12;101581.63;;;9.89;100.00
42385;BME280;28042;43.986;22.860;2023-10-13T00:37:40;101582.31;;;9.83;100.00
42385;BME280;28042;43.986;22.860;2023-10-13T00:40:11;101579.59;;;9.83;100.00
42385;BME280;28042;43.986;22.860;2023-10-13T00:42:55;101578.03;;;9.81;100.00
42385;BME280;28042;43.986;22.860;2023-10-13T00:45:28;101571.59;;;9.74;100.00
42385;BME280;28042;43.986;22.860;2023-10-13T00:47:55;101574.16;;;9.75;100.00
42385;BME280;28042;43.986;22.860;2023-10-13T00:50:26;101572.59;;;9.73;100.00
42385;BME280;28042;43.986;22.860;2023-10-13T00:52:51;101573.78;;;9.62;100.00
42385;BME280;28042;43.986;22.860;2023-10-13T00:55:17;101572.78;;;9.63;100.00
42385;BME280;28042;43.986;22.860;2023-10-13T00:57:43;101559.84;;;9.57;100.00
42385;BME280;28042;43.986;22.860;2023-10-13T01:00:11;101574.63;;;9.54;100.00
42385;BME280;28042;43.986;22.860;2023-10-13T01:02:50;101575.66;;;9.53;100.00
42385;BME280;28042;43.986;22.860;2023-10-13T01:05:24;101578.56;;;9.52;100.00
42385;BME280;28042;43.986;22.860;2023-10-13T01:07:50;101570.38;;;9.44;100.00
42385;BME280;28042;43.986;22.860;2023-10-13T01:10:19;101564.25;;;9.42;100.00
42385;BME280;28042;43.986;22.860;2023-10-13T01:12:48;101572.06;;;9.37;100.00
42385;BME280;28042;43.986;22.860;2023-10-13T01:15:17;101571.41;;;9.34;100.00
42385;BME280;28042;43.986;22.860;2023-10-13T01:17:45;101577.84;;;9.25;100.00
42385;BME280;28042;43.986;22.860;2023-10-13T01:20:11;101576.50;;;9.21;100.00
42385;BME280;28042;43.986;22.860;2023-10-13T01:22:45;101570.88;;;9.15;100.00
42385;BME280;28042;43.986;22.860;2023-10-13T01:25:14;101577.16;;;9.15;100.00
42385;BME280;28042;43.986;22.860;2023-10-13T01:27:44;101579.53;;;9.10;100.00
42385;BME280;28042;43.986;22.860;2023-10-13T01:30:13;101591.09;;;9.04;100.00
42385;BME280;28042;43.986;22.860;2023-10-13T01:32:48;101576.09;;;9.00;100.00
42385;BME280;28042;43.986;22.860;2023-10-13T01:35:15;101576.63;;;9.03;100.00
42385;BME280;28042;43.986;22.860;2023-10-13T01:37:43;101580.72;;;9.07;100.00
42385;BME280;28042;43.986;22.860;2023-10-13T01:40:10;101584.28;;;9.08;100.00
42385;BME280;28042;43.986;22.860;2023-10-13T01:42:35;101584.25;;;9.00;100.00
42385;BME280;28042;43.986;22.860;2023-10-13T01:45:02;101587.63;;;8.94;100.00
42385;BME280;28042;43.986;22.860;2023-10-13T01:47:33;101585.28;;;8.99;100.00
42385;BME280;28042;43.986;22.860;2023-10-13T01:49:59;101588.34;;;8.96;100.00
42385;BME280;28042;43.986;22.860;2023-10-13T01:52:32;101590.34;;;8.94;100.00
42385;BME280;28042;43.986;22.860;2023-10-13T01:54:57;101580.88;;;8.98;100.00
42385;BME280;28042;43.986;22.860;2023-10-13T01:57:26;101586.31;;;8.98;100.00
42385;BME280;28042;43.986;22.860;2023-10-13T01:59:53;101582.50;;;8.83;100.00
42385;BME280;28042;43.986;22.860;2023-10-13T02:02:20;101574.66;;;8.71;100.00
42385;BME280;28042;43.986;22.860;2023-10-13T02:04:54;101573.13;;;8.77;100.00
42385;BME280;28042;43.986;22.860;2023-10-13T02:07:25;101564.47;;;8.82;100.00
42385;BME280;28042;43.986;22.860;2023-10-13T02:09:54;101569.94;;;8.82;100.00
42385;BME280;28042;43.986;22.860;2023-10-13T02:12:20;101557.34;;;8.81;100.00
42385;BME280;28042;43.986;22.860;2023-10-13T02:14:52;101554.28;;;8.84;100.00
42385;BME280;28042;43.986;22.860;2023-10-13T02:17:18;101554.97;;;8.86;100.00
42385;BME280;28042;43.986;22.860;2023-10-13T02:19:46;101560.41;;;8.86;100.00
42385;BME280;28042;43.986;22.860;2023-10-13T02:22:12;101555.31;;;8.91;100.00
42385;BME280;28042;43.986;22.860;2023-10-13T02:24:49;101549.22;;;8.89;100.00
42385;BME280;28042;43.986;22.860;2023-10-13T02:27:17;101546.31;;;8.90;100.00
42385;BME280;28042;43.986;22.860;2023-10-13T02:29:42;101548.00;;;8.91;100.00
42385;BME280;28042;43.986;22.860;2023-10-13T02:32:11;101548.19;;;8.90;100.00
42385;BME280;28042;43.986;22.860;2023-10-13T02:34:47;101552.94;;;8.88;100.00
42385;BME280;28042;43.986;22.860;2023-10-13T02:37:12;101550.41;;;8.86;100.00
42385;BME280;28042;43.986;22.860;2023-10-13T02:39:38;101555.97;;;8.85;100.00
42385;BME280;28042;43.986;22.860;2023-10-13T02:42:09;101556.84;;;8.85;100.00
42385;BME280;28042;43.986;22.860;2023-10-13T02:44:50;101561.41;;;8.85;100.00
42385;BME280;28042;43.986;22.860;2023-10-13T02:47:16;101564.84;;;8.87;100.00
42385;BME280;28042;43.986;22.860;2023-10-13T02:49:43;101560.41;;;8.86;100.00
42385;BME280;28042;43.986;22.860;2023-10-13T02:52:11;101564.84;;;8.87;100.00
42385;BME280;28042;43.986;22.860;2023-10-13T02:54:38;101576.72;;;8.86;100.00
42385;BME280;28042;43.986;22.860;2023-10-13T02:57:08;101575.03;;;8.85;100.00
42385;BME280;28042;43.986;22.860;2023-10-13T02:59:33;101576.03;;;8.84;100.00
42385;BME280;28042;43.986;22.860;2023-10-13T03:02:05;101573.63;;;8.72;100.00
42385;BME280;28042;43.986;22.860;2023-10-13T03:04:48;101575.31;;;8.65;100.00
42385;BME280;28042;43.986;22.860;2023-10-13T03:07:14;101583.50;;;8.73;100.00
42385;BME280;28042;43.986;22.860;2023-10-13T03:09:51;101584.88;;;8.77;100.00
42385;BME280;28042;43.986;22.860;2023-10-13T03:12:17;101587.44;;;8.79;100.00
42385;BME280;28042;43.986;22.860;2023-10-13T03:14:43;101595.78;;;8.77;100.00
42385;BME280;28042;43.986;22.860;2023-10-13T03:17:14;101590.63;;;8.74;100.00
42385;BME280;28042;43.986;22.860;2023-10-13T03:19:45;101589.63;;;8.75;100.00
42385;BME280;28042;43.986;22.860;2023-10-13T03:22:16;101584.53;;;8.81;100.00
42385;BME280;28042;43.986;22.860;2023-10-13T03:24:55;101596.47;;;8.88;100.00
42385;BME280;28042;43.986;22.860;2023-10-13T03:27:25;101592.75;;;8.89;100.00
42385;BME280;28042;43.986;22.860;2023-10-13T03:30:04;101599.53;;;8.93;100.00
42385;BME280;28042;43.986;22.860;2023-10-13T03:32:35;101587.50;;;8.95;100.00
42385;BME280;28042;43.986;22.860;2023-10-13T03:35:04;101601.09;;;8.95;100.00
42385;BME280;28042;43.986;22.860;2023-10-13T03:37:36;101592.59;;;8.98;100.00
42385;BME280;28042;43.986;22.860;2023-10-13T03:40:05;101592.59;;;8.98;100.00
42385;BME280;28042;43.986;22.860;2023-10-13T03:42:49;101588.00;;;8.99;100.00
42385;BME280;28042;43.986;22.860;2023-10-13T03:45:44;101582.72;;;8.97;100.00
42385;BME280;28042;43.986;22.860;2023-10-13T03:48:15;101587.84;;;9.00;100.00
42385;BME280;28042;43.986;22.860;2023-10-13T03:51:01;101585.97;;;9.01;100.00
42385;BME280;28042;43.986;22.860;2023-10-13T03:53:27;101590.91;;;8.97;100.00
42385;BME280;28042;43.986;22.860;2023-10-13T03:55:58;101591.38;;;8.93;100.00
42385;BME280;28042;43.986;22.860;2023-10-13T03:58:51;101599.53;;;8.93;100.00
42385;BME280;28042;43.986;22.860;2023-10-13T04:01:19;101576.41;;;8.89;100.00
42385;BME280;28042;43.986;22.860;2023-10-13T04:03:49;101584.41;;;8.90;100.00
42385;BME280;28042;43.986;22.860;2023-10-13T04:06:29;101572.00;;;8.88;100.00
42385;BME280;28042;43.986;22.860;2023-10-13T04:14:30;101558.03;;;8.83;100.00
42385;BME280;28042;43.986;22.860;2023-10-13T04:17:14;101563.84;;;8.88;100.00
42385;BME280;28042;43.986;22.860;2023-10-13T04:19:42;101557.00;;;8.84;100.00
42385;BME280;28042;43.986;22.860;2023-10-13T04:22:26;101556.28;;;8.73;100.00
42385;BME280;28042;43.986;22.860;2023-10-13T04:25:18;101562.75;;;8.72;100.00
42385;BME280;28042;43.986;22.860;2023-10-13T04:28:02;101579.50;;;8.60;100.00
42385;BME280;28042;43.986;22.860;2023-10-13T04:33:20;101586.78;;;8.51;100.00
42385;BME280;28042;43.986;22.860;2023-10-13T04:38:53;101578.00;;;8.31;100.00
42385;BME280;28042;43.986;22.860;2023-10-13T04:44:23;101583.53;;;8.21;100.00
42385;BME280;28042;43.986;22.860;2023-10-13T04:47:06;101584.22;;;8.23;100.00
42385;BME280;28042;43.986;22.860;2023-10-13T04:49:40;101592.94;;;8.27;100.00
42385;BME280;28042;43.986;22.860;2023-10-13T04:52:08;101579.34;;;8.27;100.00
42385;BME280;28042;43.986;22.860;2023-10-13T04:54:43;101581.56;;;8.32;100.00
42385;BME280;28042;43.986;22.860;2023-10-13T04:57:34;101592.09;;;8.27;100.00
42385;BME280;28042;43.986;22.860;2023-10-13T05:00:11;101595.81;;;8.26;100.00
42385;BME280;28042;43.986;22.860;2023-10-13T05:02:43;101611.72;;;8.38;100.00
42385;BME280;28042;43.986;22.860;2023-10-13T05:05:27;101622.13;;;8.43;100.00
42385;BME280;28042;43.986;22.860;2023-10-13T05:08:12;101621.19;;;8.60;100.00
42385;BME280;28042;43.986;22.860;2023-10-13T05:10:55;101613.94;;;8.77;100.00
42385;BME280;28042;43.986;22.860;2023-10-13T05:13:39;101617.97;;;9.07;100.00
42385;BME280;28042;43.986;22.860;2023-10-13T05:16:23;101618.66;;;9.17;100.00
42385;BME280;28042;43.986;22.860;2023-10-13T05:19:07;101618.41;;;9.53;100.00
42385;BME280;28042;43.986;22.860;2023-10-13T05:21:51;101619.09;;;9.96;100.00
42385;BME280;28042;43.986;22.860;2023-10-13T05:24:35;101609.53;;;10.32;100.00
42385;BME280;28042;43.986;22.860;2023-10-13T05:27:18;101606.88;;;10.71;100.00
42385;BME280;28042;43.986;22.860;2023-10-13T05:30:02;101608.22;;;11.07;100.00
42385;BME280;28042;43.986;22.860;2023-10-13T05:32:46;101607.00;;;11.40;100.00
42385;BME280;28042;43.986;22.860;2023-10-13T05:35:30;101604.16;;;11.56;100.00
42385;BME280;28042;43.986;22.860;2023-10-13T05:38:15;101608.94;;;11.77;100.00
42385;BME280;28042;43.986;22.860;2023-10-13T05:41:00;101604.75;;;11.89;100.00
42385;BME280;28042;43.986;22.860;2023-10-13T05:43:44;101607.34;;;11.91;100.00
42385;BME280;28042;43.986;22.860;2023-10-13T05:46:28;101614.06;;;12.03;100.00
42385;BME280;28042;43.986;22.860;2023-10-13T05:48:53;101617.63;;;12.04;100.00
42385;BME280;28042;43.986;22.860;2023-10-13T05:51:29;101622.09;;;12.20;100.00
42385;BME280;28042;43.986;22.860;2023-10-13T05:53:58;101617.22;;;12.30;100.00
42385;BME280;28042;43.986;22.860;2023-10-13T05:59:23;101649.88;;;12.46;100.00
42385;BME280;28042;43.986;22.860;2023-10-13T06:02:06;101648.38;;;12.58;100.00
42385;BME280;28042;43.986;22.860;2023-10-13T06:04:50;101645.94;;;12.63;100.00
42385;BME280;28042;43.986;22.860;2023-10-13T06:07:34;101644.50;;;12.82;100.00
42385;BME280;28042;43.986;22.860;2023-10-13T06:10:18;101645.91;;;12.93;100.00
42385;BME280;28042;43.986;22.860;2023-10-13T06:13:02;101638.16;;;13.11;100.00
42385;BME280;28042;43.986;22.860;2023-10-13T06:15:46;101636.75;;;13.30;100.00
42385;BME280;28042;43.986;22.860;2023-10-13T06:18:30;101638.22;;;13.47;100.00
42385;BME280;28042;43.986;22.860;2023-10-13T06:21:14;101647.22;;;13.63;100.00
42385;BME280;28042;43.986;22.860;2023-10-13T06:23:58;101646.44;;;13.69;100.00
42385;BME280;28042;43.986;22.860;2023-10-13T06:26:42;101652.13;;;13.89;100.00
42385;BME280;28042;43.986;22.860;2023-10-13T06:29:26;101650.09;;;14.19;100.00
42385;BME280;28042;43.986;22.860;2023-10-13T06:31:51;101655.88;;;14.30;100.00
42385;BME280;28042;43.986;22.860;2023-10-13T06:34:17;101666.84;;;14.30;100.00
42385;BME280;28042;43.986;22.860;2023-10-13T06:36:53;101669.22;;;14.33;100.00
42385;BME280;28042;43.986;22.860;2023-10-13T06:39:19;101671.16;;;14.39;99.97
42385;BME280;28042;43.986;22.860;2023-10-13T06:42:00;101672.72;;;14.49;98.74
42385;BME280;28042;43.986;22.860;2023-10-13T06:44:27;101677.28;;;14.63;97.87
42385;BME280;28042;43.986;22.860;2023-10-13T06:46:57;101673.31;;;14.72;97.52
42385;BME280;28042;43.986;22.860;2023-10-13T06:49:22;101671.56;;;14.99;95.96
42385;BME280;28042;43.986;22.860;2023-10-13T06:51:48;101655.00;;;15.27;94.85
42385;BME280;28042;43.986;22.860;2023-10-13T06:54:14;101650.66;;;15.52;92.63
42385;BME280;28042;43.986;22.860;2023-10-13T06:56:46;101656.25;;;15.79;90.86
42385;BME280;28042;43.986;22.860;2023-10-13T06:59:11;101650.53;;;15.87;90.21
42385;BME280;28042;43.986;22.860;2023-10-13T07:01:38;101636.38;;;16.03;89.77
42385;BME280;28042;43.986;22.860;2023-10-13T07:04:06;101645.06;;;16.33;88.25
42385;BME280;28042;43.986;22.860;2023-10-13T07:06:38;101662.00;;;16.30;85.47
42385;BME280;28042;43.986;22.860;2023-10-13T07:09:07;101661.81;;;16.25;87.07
42385;BME280;28042;43.986;22.860;2023-10-13T07:11:40;101664.53;;;16.45;85.56
42385;BME280;28042;43.986;22.860;2023-10-13T07:14:08;101649.50;;;16.54;85.38
42385;BME280;28042;43.986;22.860;2023-10-13T07:16:43;101653.28;;;16.80;83.48
42385;BME280;28042;43.986;22.860;2023-10-13T07:19:11;101661.34;;;16.75;84.60
42385;BME280;28042;43.986;22.860;2023-10-13T07:21:42;101672.81;;;16.72;84.57
42385;BME280;28042;43.986;22.860;2023-10-13T07:24:10;101663.06;;;16.43;85.88
42385;BME280;28042;43.986;22.860;2023-10-13T07:26:36;101670.69;;;16.34;87.50
42385;BME280;28042;43.986;22.860;2023-10-13T07:29:10;101665.63;;;16.51;87.15
42385;BME280;28042;43.986;22.860;2023-10-13T07:31:36;101668.13;;;16.65;86.16
42385;BME280;28042;43.986;22.860;2023-10-13T07:34:03;101668.16;;;16.72;85.15
42385;BME280;28042;43.986;22.860;2023-10-13T07:36:38;101659.19;;;16.90;83.44
42385;BME280;28042;43.986;22.860;2023-10-13T07:39:08;101659.56;;;17.07;82.66
42385;BME280;28042;43.986;22.860;2023-10-13T07:41:49;101669.09;;;17.11;81.58
42385;BME280;28042;43.986;22.860;2023-10-13T07:44:28;101651.66;;;17.23;80.33
42385;BME280;28042;43.986;22.860;2023-10-13T07:46:57;101643.25;;;17.50;78.99
42385;BME280;28042;43.986;22.860;2023-10-13T07:49:27;101648.69;;;17.63;78.49
42385;BME280;28042;43.986;22.860;2023-10-13T07:51:56;101645.94;;;17.63;79.43
42385;BME280;28042;43.986;22.860;2023-10-13T07:54:25;101641.25;;;17.70;78.69
42385;BME280;28042;43.986;22.860;2023-10-13T07:56:51;101655.53;;;17.54;78.69
42385;BME280;28042;43.986;22.860;2023-10-13T07:59:18;101653.78;;;17.66;78.06
42385;BME280;28042;43.986;22.860;2023-10-13T08:01:47;101646.94;;;17.82;77.28
42385;BME280;28042;43.986;22.860;2023-10-13T08:04:12;101649.94;;;17.74;76.34
42385;BME280;28042;43.986;22.860;2023-10-13T08:06:39;101646.13;;;17.68;75.45
42385;BME280;28042;43.986;22.860;2023-10-13T08:09:08;101652.38;;;17.89;75.71
42385;BME280;28042;43.986;22.860;2023-10-13T08:11:35;101653.16;;;18.02;74.99
42385;BME280;28042;43.986;22.860;2023-10-13T08:14:01;101647.13;;;18.37;73.11
42385;BME280;28042;43.986;22.860;2023-10-13T08:16:36;101652.59;;;18.69;71.53
42385;BME280;28042;43.986;22.860;2023-10-13T08:19:13;101649.44;;;18.83;70.45
42385;BME280;28042;43.986;22.860;2023-10-13T08:21:45;101652.91;;;18.97;69.22
42385;BME280;28042;43.986;22.860;2023-10-13T08:24:41;101651.38;;;19.38;67.61
42385;BME280;28042;43.986;22.860;2023-10-13T08:27:06;101652.00;;;19.70;66.19
42385;BME280;28042;43.986;22.860;2023-10-13T08:29:50;101643.69;;;20.12;65.04
42385;BME280;28042;43.986;22.860;2023-10-13T08:32:19;101645.25;;;20.08;64.15
42385;BME280;28042;43.986;22.860;2023-10-13T08:34:53;101642.16;;;20.39;62.24
42385;BME280;28042;43.986;22.860;2023-10-13T08:37:20;101640.75;;;20.48;61.50
42385;BME280;28042;43.986;22.860;2023-10-13T08:39:52;101646.59;;;20.17;61.66
42385;BME280;28042;43.986;22.860;2023-10-13T08:42:23;101642.75;;;20.41;60.83
42385;BME280;28042;43.986;22.860;2023-10-13T08:44:59;101638.53;;;20.27;61.00
42385;BME280;28042;43.986;22.860;2023-10-13T08:47:30;101650.56;;;20.21;59.38
42385;BME280;28042;43.986;22.860;2023-10-13T08:50:01;101651.31;;;20.28;59.51
42385;BME280;28042;43.986;22.860;2023-10-13T08:52:35;101650.41;;;20.04;61.01
42385;BME280;28042;43.986;22.860;2023-10-13T08:55:11;101646.25;;;20.25;61.28
42385;BME280;28042;43.986;22.860;2023-10-13T08:57:57;101640.88;;;20.65;60.22
42385;BME280;28042;43.986;22.860;2023-10-13T09:00:28;101636.75;;;20.91;58.55
42385;BME280;28042;43.986;22.860;2023-10-13T09:03:14;101638.00;;;21.24;57.57
42385;BME280;28042;43.986;22.860;2023-10-13T09:05:53;101628.03;;;21.51;57.44
42385;BME280;28042;43.986;22.860;2023-10-13T09:08:26;101630.25;;;21.66;56.37
42385;BME280;28042;43.986;22.860;2023-10-13T09:11:01;101628.94;;;21.85;55.53
42385;BME280;28042;43.986;22.860;2023-10-13T09:13:39;101627.00;;;21.86;55.67
42385;BME280;28042;43.986;22.860;2023-10-13T09:16:11;101624.56;;;22.06;54.87
42385;BME280;28042;43.986;22.860;2023-10-13T09:18:41;101619.56;;;22.37;54.58
42385;BME280;28042;43.986;22.860;2023-10-13T09:21:14;101625.53;;;22.45;53.20
42385;BME280;28042;43.986;22.860;2023-10-13T09:24:08;101626.38;;;22.46;53.30
42385;BME280;28042;43.986;22.860;2023-10-13T09:26:52;101624.59;;;22.56;52.83
42385;BME280;28042;43.986;22.860;2023-10-13T09:29:21;101628.16;;;22.52;52.53
42385;BME280;28042;43.986;22.860;2023-10-13T09:31:47;101629.38;;;21.94;54.03
42385;BME280;28042;43.986;22.860;2023-10-13T09:34:22;101630.47;;;21.93;54.75
42385;BME280;28042;43.986;22.860;2023-10-13T09:36:48;101632.13;;;22.22;53.96
42385;BME280;28042;43.986;22.860;2023-10-13T09:39:21;101623.84;;;22.61;53.09
42385;BME280;28042;43.986;22.860;2023-10-13T09:42:09;101619.00;;;22.90;51.73
42385;BME280;28042;43.986;22.860;2023-10-13T09:44:35;101616.34;;;23.22;51.53
42385;BME280;28042;43.986;22.860;2023-10-13T09:47:02;101612.19;;;23.47;50.77
42385;BME280;28042;43.986;22.860;2023-10-13T09:49:44;101624.13;;;23.20;50.64
42385;BME280;28042;43.986;22.860;2023-10-13T09:52:17;101624.13;;;23.20;50.87
42385;BME280;28042;43.986;22.860;2023-10-13T09:54:56;101623.13;;;23.09;50.68
42385;BME280;28042;43.986;22.860;2023-10-13T09:57:29;101624.38;;;23.40;50.60
42385;BME280;28042;43.986;22.860;2023-10-13T10:02:57;101618.28;;;23.71;49.60
42385;BME280;28042;43.986;22.860;2023-10-13T10:06:03;101611.88;;;23.70;49.43
42385;BME280;28042;43.986;22.860;2023-10-13T10:08:30;101606.38;;;23.75;48.75
42385;BME280;28042;43.986;22.860;2023-10-13T10:11:16;101605.44;;;23.96;48.07
42385;BME280;28042;43.986;22.860;2023-10-13T10:19:01;101590.59;;;24.18;48.57
42385;BME280;28042;43.986;22.860;2023-10-13T10:21:35;101597.34;;;24.27;48.41
42385;BME280;28042;43.986;22.860;2023-10-13T10:24:01;101591.31;;;24.35;48.17
42385;BME280;28042;43.986;22.860;2023-10-13T10:26:38;101578.88;;;24.58;47.40
42385;BME280;28042;43.986;22.860;2023-10-13T10:29:14;101577.66;;;24.86;46.85
42385;BME280;28042;43.986;22.860;2023-10-13T10:31:40;101572.22;;;25.12;45.12
42385;BME280;28042;43.986;22.860;2023-10-13T10:34:15;101569.78;;;25.46;44.41
42385;BME280;28042;43.986;22.860;2023-10-13T10:36:46;101569.53;;;25.68;45.10
42385;BME280;28042;43.986;22.860;2023-10-13T10:39:11;101569.53;;;25.68;44.94
42385;BME280;28042;43.986;22.860;2023-10-13T10:41:37;101569.50;;;25.52;45.10
42385;BME280;28042;43.986;22.860;2023-10-13T10:44:10;101568.63;;;25.36;45.17
42385;BME280;28042;43.986;22.860;2023-10-13T10:46:40;101567.25;;;25.29;44.96
42385;BME280;28042;43.986;22.860;2023-10-13T10:49:07;101566.53;;;25.01;45.35
42385;BME280;28042;43.986;22.860;2023-10-13T10:51:33;101558.63;;;24.83;46.12
42385;BME280;28042;43.986;22.860;2023-10-13T10:54:17;101552.06;;;25.04;45.56
42385;BME280;28042;43.986;22.860;2023-10-13T10:56:43;101558.81;;;25.14;45.85
42385;BME280;28042;43.986;22.860;2023-10-13T10:59:08;101546.59;;;25.40;45.68
42385;BME280;28042;43.986;22.860;2023-10-13T11:01:43;101555.56;;;25.68;44.90
42385;BME280;28042;43.986;22.860;2023-10-13T11:04:12;101551.13;;;25.97;44.86
42385;BME280;28042;43.986;22.860;2023-10-13T11:07:01;101549.44;;;26.11;43.81
42385;BME280;28042;43.986;22.860;2023-10-13T11:09:33;101535.47;;;26.06;43.55
42385;BME280;28042;43.986;22.860;2023-10-13T11:12:14;101528.91;;;26.67;42.49
42385;BME280;28042;43.986;22.860;2023-10-13T11:15:05;101521.22;;;26.98;41.11
42385;BME280;28042;43.986;22.860;2023-10-13T11:17:58;101531.25;;;27.14;40.47
42385;BME280;28042;43.986;22.860;2023-10-13T11:20:24;101530.16;;;27.00;39.19
42385;BME280;28042;43.986;22.860;2023-10-13T11:23:14;101529.63;;;27.03;38.84
42385;BME280;28042;43.986;22.860;2023-10-13T11:25:40;101522.94;;;26.89;38.71
42385;BME280;28042;43.986;22.860;2023-10-13T11:28:12;101518.13;;;26.99;38.99
42385;BME280;28042;43.986;22.860;2023-10-13T11:31:04;101515.03;;;27.11;38.68
42385;BME280;28042;43.986;22.860;2023-10-13T11:33:44;101503.72;;;27.26;37.80
42385;BME280;28042;43.986;22.860;2023-10-13T11:36:12;101512.06;;;27.37;37.53
42385;BME280;28042;43.986;22.860;2023-10-13T11:38:48;101509.66;;;27.59;37.08
42385;BME280;28042;43.986;22.860;2023-10-13T11:41:13;101500.03;;;27.70;37.75
42385;BME280;28042;43.986;22.860;2023-10-13T11:43:45;101510.09;;;27.76;37.50
42385;BME280;28042;43.986;22.860;2023-10-13T11:46:17;101509.09;;;27.57;35.62
42385;BME280;28042;43.986;22.860;2023-10-13T11:51:32;101506.78;;;27.30;37.99
42385;BME280;28042;43.986;22.860;2023-10-13T11:53:58;101510.81;;;27.53;37.16
42385;BME280;28042;43.986;22.860;2023-10-13T11:56:25;101507.47;;;27.51;37.39
42385;BME280;28042;43.986;22.860;2023-10-13T11:58:50;101508.09;;;27.43;37.02
42385;BME280;28042;43.986;22.860;2023-10-13T12:01:16;101501.50;;;27.23;36.88
42385;BME280;28042;43.986;22.860;2023-10-13T12:03:46;101503.97;;;27.30;37.04
42385;BME280;28042;43.986;22.860;2023-10-13T12:06:31;101502.53;;;27.38;37.09
42385;BME280;28042;43.986;22.860;2023-10-13T12:09:02;101505.78;;;27.50;36.51
42385;BME280;28042;43.986;22.860;2023-10-13T12:11:40;101497.91;;;27.52;36.19
42385;BME280;28042;43.986;22.860;2023-10-13T12:14:07;101485.56;;;27.58;35.90
42385;BME280;28042;43.986;22.860;2023-10-13T12:16:47;101488.59;;;27.67;35.45
42385;BME280;28042;43.986;22.860;2023-10-13T12:19:19;101486.59;;;27.72;35.69
42385;BME280;28042;43.986;22.860;2023-10-13T12:21:48;101490.44;;;27.81;35.33
42385;BME280;28042;43.986;22.860;2023-10-13T12:24:14;101496.03;;;27.81;34.78
42385;BME280;28042;43.986;22.860;2023-10-13T12:27:08;101495.22;;;27.81;34.86
42385;BME280;28042;43.986;22.860;2023-10-13T12:29:49;101494.44;;;27.70;35.14
42385;BME280;28042;43.986;22.860;2023-10-13T12:32:15;101500.06;;;27.65;33.19
42385;BME280;28042;43.986;22.860;2023-10-13T12:34:46;101488.69;;;27.85;32.96
42385;BME280;28042;43.986;22.860;2023-10-13T12:37:30;101494.84;;;27.87;32.82
42385;BME280;28042;43.986;22.860;2023-10-13T12:40:05;101499.53;;;27.63;29.37
42385;BME280;28042;43.986;22.860;2023-10-13T12:43:06;101489.66;;;27.71;29.08
42385;BME280;28042;43.986;22.860;2023-10-13T12:45:50;101489.84;;;27.84;31.03
42385;BME280;28042;43.986;22.860;2023-10-13T12:48:34;101488.16;;;27.83;30.75
42385;BME280;28042;43.986;22.860;2023-10-13T12:51:18;101486.00;;;27.75;30.67
42385;BME280;28042;43.986;22.860;2023-10-13T12:53:56;101491.59;;;27.75;31.34
42385;BME280;28042;43.986;22.860;2023-10-13T12:56:29;101483.81;;;27.67;32.08
42385;BME280;28042;43.986;22.860;2023-10-13T12:58:55;101494.81;;;27.53;32.21
42385;BME280;28042;43.986;22.860;2023-10-13T13:01:20;101482.22;;;27.56;31.83
42385;BME280;28042;43.986;22.860;2023-10-13T13:03:46;101478.34;;;27.47;32.16
42385;BME280;28042;43.986;22.860;2023-10-13T13:06:21;101482.22;;;27.51;32.91
42385;BME280;28042;43.986;22.860;2023-10-13T13:08:53;101489.00;;;27.45;32.91
42385;BME280;28042;43.986;22.860;2023-10-13T13:11:18;101484.59;;;27.33;33.00
42385;BME280;28042;43.986;22.860;2023-10-13T13:13:44;101477.84;;;27.40;32.93
42385;BME280;28042;43.986;22.860;2023-10-13T13:16:11;101482.63;;;27.39;33.55
42385;BME280;28042;43.986;22.860;2023-10-13T13:18:37;101484.03;;;27.37;33.54
42385;BME280;28042;43.986;22.860;2023-10-13T13:21:02;101482.78;;;27.53;33.22
42385;BME280;28042;43.986;22.860;2023-10-13T13:23:31;101473.22;;;27.54;33.70
42385;BME280;28042;43.986;22.860;2023-10-13T13:25:56;101478.34;;;27.47;32.71
42385;BME280;28042;43.986;22.860;2023-10-13T13:28:22;101473.16;;;27.64;32.82
42385;BME280;28042;43.986;22.860;2023-10-13T13:30:49;101482.84;;;27.43;33.46
42385;BME280;28042;43.986;22.860;2023-10-13T13:33:16;101472.28;;;27.35;34.05
42385;BME280;28042;43.986;22.860;2023-10-13T13:35:41;101473.00;;;27.50;33.60